Zwijndrecht, Netherlands
Current Conditions -  °F | °C
As of 1:25 PM on Monday 22 Dec 2014 (Local Time) from EHRD Reporting Station
Broken Clouds Broken Clouds  
Wind Chill: 54°   Ceiling: 1200
Heat Index: 54°   Visibility: 6mi
Dew Point: 50°   Wind: 31mph
Humidity: 88%   Direction: 240°WSW
Pressure: 29.97"   Gusts: NA
Location:  51.82°N, 4.63°E
Report Text: EHRD 221225Z AUTO 24027KT 9999 BKN012/// BKN014/// BKN032///12/10 Q1015 BECMG BKN015 TEMPO 5000 -DZRA BKN009
Loading
Personal Weather Stations






























Interactive Weather Map New forecast layout! Learn more

10-Day Weather Forecast

Advertisements
Track Severe Weather on mobile